TRA29N EHAM-LEZL
Flight info
| Callsign | TRA29N |
|---|---|
| Flight time | N/A |
| Altitude | 35000 |
| Route | WOODY N872 MEDIL DCT KOVIN DCT DUCRA DCT RESMI DCT DEKOD DCT DISAK DCT ARKIP DCT ARNAV DCT LMG DCT UVELI DCT OSMOB DCT ARVID DCT PPN DCT NOLSA DCT ALEPO DCT VASUM DCT BANEV DCT BAN DCT GOTOR DCT KAMPO DCT MONTO DCT MOLIN DCT HIJ |
| Aircraft | A321/M-SDE3FGHIRWY/LB1 |
Departure
| Time | 2026-05-07 15:49 |
|---|---|
| Airport | Amsterdam Airport Schiphol (EHAM) |
Arrival
| Time | N/A |
|---|---|
| Airport | Seville Airport (LEZL) |
| Time | Latitude | Longitude | Altitude | Speed | Heading |
|---|---|---|---|---|---|
| 2026-05-07 15:14 | 52.30574 | 4.76695 | -1 ft | 0 kts | 215° |
| 2026-05-07 15:34 | 52.30582 | 4.76705 | -1 ft | 4 kts | 215° |
| 2026-05-07 15:34 | 52.30604 | 4.76730 | -1 ft | 3 kts | 215° |
| 2026-05-07 15:34 | 52.30622 | 4.76749 | -1 ft | 4 kts | 218° |
| 2026-05-07 15:34 | 52.30636 | 4.76767 | -1 ft | 4 kts | 293° |
| 2026-05-07 15:35 | 52.30623 | 4.76798 | -1 ft | 3 kts | 304° |
| 2026-05-07 15:35 | 52.30622 | 4.76803 | -1 ft | 0 kts | 304° |
| 2026-05-07 15:37 | 52.30624 | 4.76798 | -1 ft | 2 kts | 304° |
| 2026-05-07 15:37 | 52.30645 | 4.76793 | -1 ft | 3 kts | 45° |
| 2026-05-07 15:38 | 52.30659 | 4.76889 | -1 ft | 14 kts | 90° |
| 2026-05-07 15:38 | 52.30651 | 4.77102 | -1 ft | 24 kts | 92° |
| 2026-05-07 15:38 | 52.30643 | 4.77322 | -1 ft | 11 kts | 94° |
| 2026-05-07 15:38 | 52.30642 | 4.77332 | -1 ft | 1 kts | 93° |
| 2026-05-07 15:39 | 52.30642 | 4.77351 | -1 ft | 2 kts | 93° |
| 2026-05-07 15:39 | 52.30642 | 4.77356 | -1 ft | 0 kts | 93° |
| 2026-05-07 15:39 | 52.30641 | 4.77386 | -1 ft | 6 kts | 93° |
| 2026-05-07 15:39 | 52.30643 | 4.77506 | -1 ft | 15 kts | 83° |
| 2026-05-07 15:40 | 52.30732 | 4.77596 | -1 ft | 17 kts | 2° |
| 2026-05-07 15:40 | 52.30858 | 4.77606 | -1 ft | 21 kts | 3° |
| 2026-05-07 15:40 | 52.31035 | 4.77623 | -1 ft | 30 kts | 3° |
| 2026-05-07 15:40 | 52.31243 | 4.77641 | -1 ft | 31 kts | 3° |
| 2026-05-07 15:41 | 52.31431 | 4.77646 | -1 ft | 25 kts | 342° |
| 2026-05-07 15:41 | 52.31562 | 4.77461 | -1 ft | 24 kts | 299° |
| 2026-05-07 15:41 | 52.31571 | 4.77183 | -1 ft | 25 kts | 267° |
| 2026-05-07 15:41 | 52.31560 | 4.76886 | -1 ft | 27 kts | 267° |
| 2026-05-07 15:42 | 52.31550 | 4.76573 | -1 ft | 26 kts | 267° |
| 2026-05-07 15:42 | 52.31540 | 4.76293 | -1 ft | 25 kts | 266° |
| 2026-05-07 15:42 | 52.31530 | 4.75986 | -1 ft | 29 kts | 266° |
| 2026-05-07 15:42 | 52.31520 | 4.75654 | -1 ft | 28 kts | 266° |
| 2026-05-07 15:43 | 52.31509 | 4.75370 | -1 ft | 24 kts | 266° |
| 2026-05-07 15:43 | 52.31499 | 4.75083 | -1 ft | 20 kts | 267° |
| 2026-05-07 15:43 | 52.31491 | 4.74853 | -1 ft | 17 kts | 266° |
| 2026-05-07 15:43 | 52.31489 | 4.74768 | -1 ft | 0 kts | 270° |
| 2026-05-07 15:44 | 52.31490 | 4.74736 | -1 ft | 6 kts | 278° |
| 2026-05-07 15:44 | 52.31503 | 4.74691 | -1 ft | 0 kts | 313° |
| 2026-05-07 15:44 | 52.31504 | 4.74690 | -1 ft | 0 kts | 313° |
| 2026-05-07 15:44 | 52.31510 | 4.74683 | -1 ft | 4 kts | 324° |
| 2026-05-07 15:45 | 52.31561 | 4.74663 | -1 ft | 6 kts | 356° |
| 2026-05-07 15:45 | 52.31567 | 4.74662 | -1 ft | 0 kts | 356° |
| 2026-05-07 15:45 | 52.31569 | 4.74662 | -1 ft | 0 kts | 356° |
| 2026-05-07 15:47 | 52.31570 | 4.74662 | -1 ft | 0 kts | 356° |
| 2026-05-07 15:47 | 52.31605 | 4.74666 | -1 ft | 11 kts | 12° |
| 2026-05-07 15:47 | 52.31670 | 4.74800 | -1 ft | 22 kts | 84° |
| 2026-05-07 15:48 | 52.31681 | 4.75160 | -3 ft | 52 kts | 86° |
| 2026-05-07 15:48 | 52.31713 | 4.76114 | -1 ft | 113 kts | 87° |
| 2026-05-07 15:48 | 52.31766 | 4.77673 | 0 ft | 160 kts | 86° |
| 2026-05-07 15:48 | 52.31819 | 4.79599 | 371 ft | 170 kts | 93° |
| 2026-05-07 15:49 | 52.31295 | 4.81304 | 1016 ft | 177 kts | 135° |
| 2026-05-07 15:49 | 52.30216 | 4.82226 | 1675 ft | 183 kts | 160° |
| 2026-05-07 15:49 | 52.28937 | 4.82902 | 1921 ft | 204 kts | 159° |
| 2026-05-07 15:49 | 52.27529 | 4.83709 | 2159 ft | 223 kts | 158° |
| 2026-05-07 15:50 | 52.26035 | 4.84554 | 2791 ft | 229 kts | 164° |
| 2026-05-07 15:50 | 52.24412 | 4.84814 | 3343 ft | 246 kts | 179° |
| 2026-05-07 15:50 | 52.22644 | 4.84793 | 3831 ft | 262 kts | 180° |
| 2026-05-07 15:50 | 52.20785 | 4.84741 | 4690 ft | 265 kts | 181° |
| 2026-05-07 15:51 | 52.18936 | 4.84684 | 5582 ft | 266 kts | 181° |
| 2026-05-07 15:51 | 52.17079 | 4.84627 | 6518 ft | 265 kts | 180° |
| 2026-05-07 15:51 | 52.15235 | 4.84577 | 7386 ft | 266 kts | 181° |